Data for 08/20/2014

Time Sea-Level Adjusted Pressure Absolute Pressure Temperature Relative Humidity Dew Point   
(mb) (inHg) (mb) (inHg) (C) (F) (%) (C) (F)
00:05 1013 29.91 842 24.86 17.2 63 53 7.6 45.6
00:10 1013 29.91 842 24.86 17.2 62.9 53 7.7 45.8
00:15 1013 29.91 843 24.89 17 62.7 54 7.7 45.8
00:20 1013 29.91 843 24.89 16.9 62.5 55 7.8 46.1
00:25 1013 29.91 843 24.89 16.7 62 55 7.7 45.8
00:30 1013 29.91 843 24.89 16.3 61.4 57 7.8 46
00:35 1014 29.94 843 24.89 16.1 61 58 7.8 46.1
00:40 1014 29.94 843 24.89 16 60.9 58 7.8 46
00:45 1014 29.94 843 24.89 16 60.7 58 7.9 46.2
00:50 1014 29.94 843 24.89 15.9 60.6 59 7.9 46.2
00:55 1014 29.94 843 24.89 15.7 60.3 60 8 46.4
01:00 1014 29.94 843 24.89 15.6 60 61 8.1 46.5
01:05 1014 29.94 843 24.89 15.5 59.8 60 7.9 46.2
01:10 1014 29.94 843 24.89 15.4 59.6 60 7.8 46
01:15 1014 29.94 843 24.89 15.3 59.5 61 7.8 46.1
01:20 1014 29.94 843 24.89 15.2 59.4 59 7.3 45.1
01:25 1014 29.94 843 24.89 15.3 59.5 59 7.3 45.1
01:30 1014 29.94 843 24.89 15.2 59.4 58 7.1 44.8
01:35 1014 29.94 843 24.89 15.2 59.4 58 7.1 44.8
01:40 1014 29.94 843 24.89 15.1 59.2 59 7.2 44.9
01:45 1014 29.94 843 24.89 15.1 59.2 59 7.3 45.1
01:50 1014 29.94 843 24.89 15.1 59.2 59 7.3 45.1
01:55 1014 29.94 843 24.89 15.1 59.1 60 7.4 45.3
02:00 1014 29.94 843 24.89 14 57.2 65 7.5 45.5
02:05 1014 29.94 843 24.89 13.8 56.8 64 7.3 45.1
02:10 1014 29.94 843 24.89 14 57.2 63 7.1 44.8
02:15 1014 29.94 843 24.89 14.3 57.7 63 7.3 45.2
02:20 1014 29.94 843 24.89 14.1 57.3 65 7.6 45.6
02:25 1014 29.94 843 24.89 13.8 56.8 66 7.6 45.6
02:30 1014 29.94 843 24.89 13.7 56.6 66 7.4 45.3
02:35 1014 29.94 843 24.89 13.7 56.7 65 7.4 45.4
02:40 1014 29.94 843 24.89 13.5 56.3 67 7.5 45.6
02:45 1014 29.94 843 24.89 13 55.4 70 7.6 45.7
02:50 1014 29.94 843 24.89 12.6 54.8 70 7.4 45.3
02:55 1014 29.94 843 24.89 12.6 54.7 68 7 44.5
03:00 1014 29.94 843 24.89 12.6 54.7 70 7.3 45.1
03:05 1014 29.94 843 24.89 12.3 54.1 69 6.8 44.3
03:10 1014 29.94 843 24.89 12.3 54.2 67 6.5 43.7
03:15 1014 29.94 843 24.89 12.6 54.7 67 6.7 44
03:20 1014 29.94 843 24.89 12.7 54.9 67 6.9 44.4
03:25 1014 29.94 843 24.89 12.6 54.7 69 7.1 44.9
03:30 1014 29.94 843 24.89 12.3 54.1 68 6.6 43.8
03:35 1014 29.94 843 24.89 12.6 54.6 66 6.3 43.4
03:40 1014 29.94 843 24.89 12.8 55 65 6.4 43.5
03:45 1014 29.94 843 24.89 13.1 55.6 62 6 42.7
03:50 1014 29.94 843 24.89 13.4 56.1 61 6.1 43
03:55 1014 29.94 843 24.89 13.1 55.5 64 6.4 43.5
04:00 1014 29.94 843 24.89 12.8 55 64 6.1 43.1
04:05 1014 29.94 843 24.89 12.7 54.9 63 6 42.8
04:10 1014 29.94 843 24.89 12.8 55.1 62 5.9 42.6
04:15 1014 29.94 843 24.89 13 55.5 62 5.9 42.7
04:20 1014 29.94 843 24.89 12.9 55.3 63 6.2 43.1
04:25 1014 29.94 843 24.89 12.9 55.2 62 5.8 42.5
04:30 1014 29.94 843 24.89 13.6 56.4 59 5.8 42.4
04:35 1014 29.94 843 24.89 13.7 56.7 59 5.8 42.5
04:40 1014 29.94 844 24.92 13.9 56.9 58 5.9 42.6
04:45 1014 29.94 843 24.89 13.9 56.9 58 5.9 42.6
04:50 1014 29.94 844 24.92 13.7 56.7 59 5.9 42.7
04:55 1014 29.94 844 24.92 13.6 56.5 60 6.1 42.9
05:00 1014 29.94 844 24.92 13.3 55.9 62 6.2 43.1
05:05 1015 29.97 844 24.92 12.9 55.3 64 6.3 43.3
05:10 1015 29.97 844 24.92 12.6 54.6 64 6.1 43
05:15 1015 29.97 844 24.92 12.5 54.4 63 5.7 42.3
05:20 1015 29.97 844 24.92 12.6 54.7 64 6 42.8
05:25 1015 29.97 844 24.92 11.8 53.2 68 6.1 43
05:30 1015 29.97 844 24.92 11.2 52.2 66 5.2 41.3
05:35 1015 29.97 844 24.92 11.3 52.3 65 5 41
05:40 1015 29.97 844 24.92 11.4 52.4 66 5.3 41.5
05:45 1015 29.97 844 24.92 11.3 52.3 68 5.5 42
05:50 1015 29.97 844 24.92 11.3 52.3 66 5.1 41.2
05:55 1015 29.97 844 24.92 11.2 52.1 68 5.5 41.8
06:00 1015 29.97 844 24.92 11.1 52 67 5.2 41.4
06:05 1015 29.97 844 24.92 11.7 53.1 63 4.9 40.8
06:10 1015 29.97 844 24.92 12.2 54 63 5.4 41.8
06:15 1015 29.97 844 24.92 11.9 53.4 65 5.6 42.2
06:20 1015 29.97 844 24.92 11.6 52.9 66 5.6 42
06:25 1015 29.97 844 24.92 11.7 53.1 65 5.5 41.8
06:30 1015 29.97 844 24.92 11.9 53.5 65 5.6 42
06:35 1015 29.97 844 24.92 11.9 53.3 66 5.7 42.2
06:40 1015 29.97 844 24.92 11.7 53.1 66 5.7 42.2
06:45 1015 29.97 844 24.92 11.7 53 66 5.5 42
06:50 1015 29.97 844 24.92 11.9 53.5 64 5.5 41.9
06:55 1015 29.97 844 24.92 12.4 54.4 63 5.6 42.1
07:00 1015 29.97 844 24.92 12.6 54.7 63 5.8 42.5
07:05 1015 29.97 844 24.92 12.8 55 62 5.7 42.3
07:10 1015 29.97 844 24.92 13.1 55.6 62 6.1 42.9
07:15 1015 29.97 844 24.92 13.2 55.8 62 6.1 42.9
07:20 1015 29.97 845 24.95 13.6 56.4 60 6.1 42.9
07:25 1015 29.97 845 24.95 13.8 56.9 61 6.4 43.5
07:30 1015 29.97 845 24.95 13.9 57.1 60 6.3 43.3
07:35 1016 30 845 24.95 14 57.3 59 6.3 43.3
07:40 1016 30 845 24.95 14.1 57.3 59 6.3 43.3
07:45 1016 30 845 24.95 14.5 58 57 6.2 43.1
07:50 1016 30 845 24.95 15 59.1 54 5.9 42.6
07:55 1016 30 845 24.95 15.5 59.9 52 5.9 42.5
08:00 1016 30 845 24.95 16.3 61.3 53 6.6 44
08:05 1016 30 845 24.95 16.5 61.7 52 6.7 44.1
08:10 1016 30 845 24.95 16.6 61.8 51 6.5 43.6
08:15 1016 30 845 24.95 16.3 61.3 54 6.9 44.4
08:20 1016 30 845 24.95 16.6 61.8 50 6.3 43.4
08:25 1016 30 845 24.95 16.5 61.6 51 6.3 43.4
08:30 1016 30 845 24.95 16.5 61.7 49 5.9 42.5
08:35 1016 30 845 24.95 16.3 61.4 55 7.5 45.4
08:40 1016 30 845 24.95 16.2 61.2 53 6.8 44.2
08:45 1016 30 845 24.95 16 60.8 53 6.5 43.7
08:50 1016 30 845 24.95 16 60.8 54 6.8 44.3
08:55 1016 30 845 24.95 16.1 61 52 6.4 43.4
09:00 1016 30 845 24.95 16.2 61.1 54 6.9 44.4
09:05 1016 30 845 24.95 16.6 62 52 6.8 44.2
09:10 1016 30 845 24.95 17.2 62.9 51 7 44.6
09:15 1016 30 845 24.95 17.6 63.6 50 7.3 45.1
09:20 1016 30 845 24.95 17.6 63.6 51 7.4 45.3
09:25 1016 30 845 24.95 17.9 64.2 50 7.4 45.3
09:30 1016 30 845 24.95 18.6 65.4 48 7.3 45.2
09:35 1016 30 845 24.95 18.4 65.1 48 7.3 45.2
09:40 1016 30 845 24.95 19 66.2 49 8.1 46.5
09:45 1016 30 845 24.95 19 66.1 49 8.1 46.5
09:50 1016 30 845 24.95 18.5 65.4 50 8 46.4
09:55 1016 30 845 24.95 19.2 66.5 46 7.5 45.5
10:00 1016 30 845 24.95 20.3 68.6 44 7.9 46.2
10:05 1016 30 845 24.95 20.2 68.3 40 6.2 43.2
10:10 1016 30 845 24.95 20.6 69 40 6.6 43.8
10:15 1016 30 845 24.95 21.5 70.6 34 5 41
10:20 1016 30 845 24.95 21.9 71.4 33 5.2 41.4
10:25 1016 30 845 24.95 22.3 72.2 34 5.9 42.6
10:30 1016 30 845 24.95 22.3 72.2 35 6.3 43.4
10:35 1016 30 845 24.95 22.5 72.4 33 5.6 42
10:40 1016 30 845 24.95 22.9 73.2 32 5.6 42
10:45 1016 30 845 24.95 23 73.4 31 5 41.1
10:50 1016 30 845 24.95 23.3 74 33 6.5 43.6
10:55 1016 30 845 24.95 23.2 73.8 33 6.5 43.6
11:00 1016 30 845 24.95 22 71.6 37 7 44.6
11:05 1016 30 845 24.95 22.1 71.7 35 6.1 43
11:10 1016 30 845 24.95 22.3 72.1 35 6.4 43.5
11:15 1016 30 845 24.95 22.1 71.7 33 5.1 41.2
11:20 1016 30 845 24.95 23 73.3 32 5.6 42.1
11:25 1016 30 845 24.95 22.5 72.5 33 5.6 42.2
11:30 1015 29.97 845 24.95 22.9 73.2 32 5.6 42.1
11:35 1015 29.97 845 24.95 23.7 74.6 32 6.4 43.5
11:40 1015 29.97 845 24.95 23.3 74 31 5.5 41.9
11:45 1015 29.97 844 24.92 23.7 74.7 30 5.6 42
11:50 1015 29.97 844 24.92 23.8 74.9 30 5.3 41.6
11:55 1015 29.97 844 24.92 22.9 73.2 31 5.3 41.6
12:00 1015 29.97 844 24.92 22.6 72.7 32 5.4 41.7
12:05 1015 29.97 844 24.92 22.4 72.3 30 4.2 39.6
12:10 1015 29.97 844 24.92 22.9 73.3 29 4.4 39.8
12:15 1015 29.97 844 24.92 23.1 73.5 28 3.7 38.7
12:20 1015 29.97 844 24.92 23.9 75 28 4.7 40.4
12:25 1015 29.97 844 24.92 24.4 75.9 26 3.8 38.8
12:30 1015 29.97 844 24.92 24.3 75.7 27 4.3 39.7
12:35 1015 29.97 844 24.92 24.5 76.1 24 2.8 37
12:40 1015 29.97 844 24.92 25.5 77.9 25 4.5 40.1
12:45 1014 29.94 844 24.92 24.6 76.2 27 4.6 40.2
12:50 1014 29.94 844 24.92 24.4 76 26 3.9 39
12:55 1014 29.94 844 24.92 23.8 74.8 26 3.3 38
13:00 1014 29.94 844 24.92 24.2 75.6 26 3.9 39.1
13:05 1014 29.94 843 24.89 24.8 76.7 25 3.6 38.4
13:10 1014 29.94 843 24.89 25.5 77.8 24 3.9 39
13:15 1014 29.94 843 24.89 25.7 78.2 24 3.9 38.9
13:20 1014 29.94 843 24.89 24.8 76.6 25 3.6 38.4
13:25 1014 29.94 843 24.89 25 77.1 24 3.3 38
13:30 1014 29.94 843 24.89 24.8 76.7 26 4 39.2
13:35 1014 29.94 843 24.89 25.3 77.6 24 3.6 38.5
13:40 1014 29.94 843 24.89 25.7 78.3 23 3.4 38.1
13:45 1014 29.94 843 24.89 25.8 78.4 24 3.9 39
13:50 1014 29.94 843 24.89 24.6 76.2 25 3.3 37.9
13:55 1014 29.94 843 24.89 24.6 76.2 26 3.9 39
14:00 1014 29.94 843 24.89 24.4 75.8 26 3.9 39
14:05 1014 29.94 843 24.89 24.4 75.8 26 3.9 39
14:10 1014 29.94 843 24.89 24.4 75.8 26 3.9 39
14:15 1014 29.94 843 24.89 24.3 75.8 26 4 39.1
14:20 1014 29.94 844 24.92 23.4 74.1 35 7.3 45.1
14:25 1015 29.97 844 24.92 19.9 67.8 46 8.1 46.7
14:30 1015 29.97 844 24.92 18.2 64.7 55 9.1 48.3
14:35 1015 29.97 844 24.92 17.3 63.2 62 10 50.1
14:40 1015 29.97 845 24.95 16.5 61.7 67 10.5 50.9
14:45 1016 30 845 24.95 15.5 59.8 69 9.8 49.7
14:50 1016 30 845 24.95 15.1 59.1 66 8.9 48
14:55 1016 30 845 24.95 15.4 59.7 70 10 50.1
15:00 1016 30 845 24.95 14.9 58.9 70 9.6 49.4
15:05 1016 30 845 24.95 15.3 59.5 64 8.6 47.5
15:10 1016 30 846 24.98 15.7 60.3 65 9.2 48.6
15:15 1016 30 845 24.95 15.5 59.9 59 7.7 45.9
15:20 1016 30 845 24.95 15.5 60 70 10.1 50.3
15:25 1016 30 845 24.95 14.9 58.9 76 10.7 51.3
15:30 1016 30 845 24.95 15.1 59.1 74 10.6 51.1
15:35 1016 30 845 24.95 15.2 59.3 74 10.7 51.2
15:40 1016 30 845 24.95 15.5 59.9 70 10.2 50.4
15:45 1016 30 845 24.95 15.6 60.1 70 10.1 50.2
15:50 1016 30 845 24.95 15.9 60.6 69 10.3 50.5
15:55 1016 30 845 24.95 16.3 61.3 62 9.1 48.4
16:00 1016 30 845 24.95 16.5 61.7 62 9.2 48.6
16:05 1016 30 846 24.98 17.2 62.9 59 9.1 48.3
16:10 1016 30 845 24.95 18.4 65.1 50 8 46.4
16:15 1016 30 846 24.98 18.6 65.4 54 9.1 48.4
16:20 1016 30 846 24.98 18.8 65.8 57 10.2 50.3
16:25 1016 30 846 24.98 18.7 65.6 58 10.3 50.6
16:30 1016 30 846 24.98 19 66.2 53 9.3 48.7
16:35 1016 30 845 24.95 19.3 66.8 56 10.5 51
16:40 1016 30 845 24.95 19.3 66.8 53 9.8 49.6
16:45 1016 30 845 24.95 18.5 65.3 54 9.2 48.6
16:50 1016 30 845 24.95 18.6 65.5 53 8.9 48
16:55 1016 30 845 24.95 18.9 65.9 50 8.4 47
17:00 1016 30 845 24.95 18.7 65.7 52 8.8 47.8
17:05 1016 30 845 24.95 18.6 65.5 53 8.9 48
17:10 1016 30 845 24.95 18.5 65.2 53 8.7 47.6
17:15 1016 30 845 24.95 18.5 65.2 53 8.8 47.9
17:20 1016 30 845 24.95 18.3 64.9 55 9.3 48.7
17:25 1016 30 845 24.95 18.1 64.5 54 8.7 47.7
17:30 1016 30 845 24.95 18.1 64.6 54 8.7 47.6
17:35 1016 30 845 24.95 18.1 64.6 54 8.7 47.7
17:40 1016 30 845 24.95 18.1 64.6 51 8 46.3
17:45 1016 30 845 24.95 18.3 65 55 9.3 48.8
17:50 1016 30 845 24.95 18 64.4 58 9.8 49.6
17:55 1016 30 845 24.95 17.5 63.4 59 9.5 49.1
18:00 1016 30 845 24.95 17.1 62.8 60 9.4 48.9
18:05 1016 30 845 24.95 17.1 62.8 60 9.5 49
18:10 1016 30 845 24.95 17.2 63 60 9.5 49.1
18:15 1016 30 845 24.95 17.3 63.2 59 9.4 48.9
18:20 1016 30 845 24.95 17.2 62.9 59 9.3 48.7
18:25 1016 30 845 24.95 16.9 62.5 60 9.2 48.6
18:30 1016 30 845 24.95 16.8 62.2 61 9.4 48.8
18:35 1016 30 845 24.95 16.7 62.1 61 9.1 48.4
18:40 1016 30 846 24.98 16.6 61.9 61 9.1 48.5
18:45 1016 30 845 24.95 16.6 61.8 62 9.2 48.6
18:50 1016 30 845 24.95 16.6 62 61 9.2 48.6
18:55 1016 30 845 24.95 16.7 62 61 9.2 48.6
19:00 1016 30 846 24.98 16.6 61.9 62 9.3 48.8
19:05 1016 30 846 24.98 16.6 61.9 62 9.5 49
19:10 1016 30 846 24.98 16.5 61.7 64 9.8 49.6
19:15 1017 30.03 846 24.98 16.3 61.4 66 10 50
19:20 1017 30.03 846 24.98 16.3 61.4 65 9.8 49.6
19:25 1017 30.03 846 24.98 16.2 61.2 66 10 49.9
19:30 1017 30.03 846 24.98 16.1 60.9 67 10 49.9
19:35 1017 30.03 846 24.98 16 60.8 66 9.7 49.5
19:40 1017 30.03 846 24.98 16.1 61 66 9.8 49.6
19:45 1017 30.03 846 24.98 16.1 61.1 66 9.8 49.6
19:50 1017 30.03 846 24.98 16 60.8 66 9.7 49.5
19:55 1017 30.03 846 24.98 15.9 60.6 66 9.7 49.4
20:00 1017 30.03 846 24.98 15.9 60.6 66 9.7 49.4
20:05 1017 30.03 846 24.98 15.8 60.5 67 9.7 49.5
20:10 1017 30.03 846 24.98 15.7 60.3 66 9.6 49.2
20:15 1017 30.03 846 24.98 15.9 60.5 65 9.3 48.8
20:20 1017 30.03 846 24.98 15.9 60.7 66 9.7 49.4
20:25 1017 30.03 847 25.01 16 60.8 65 9.6 49.2
20:30 1017 30.03 847 25.01 16.1 60.9 62 8.9 48
20:35 1017 30.03 847 25.01 16.3 61.3 60 8.5 47.4
20:40 1017 30.03 847 25.01 16.3 61.4 60 8.6 47.5
20:45 1017 30.03 847 25.01 16.1 61 62 9 48.1
20:50 1017 30.03 847 25.01 15.9 60.7 63 9 48.2
20:55 1017 30.03 847 25.01 15.7 60.3 65 9.2 48.6
21:00 1017 30.03 847 25.01 15.6 60.2 66 9.3 48.7
21:05 1017 30.03 847 25.01 15.5 59.9 65 9.1 48.4
21:10 1017 30.03 847 25.01 15.5 59.9 66 9.2 48.5
21:15 1018 30.06 847 25.01 15.5 59.9 65 9.1 48.4
21:20 1017 30.03 847 25.01 15.4 59.6 67 9.4 49
21:25 1017 30.03 847 25.01 15 58.9 69 9.4 48.9
21:30 1017 30.03 847 25.01 14.9 58.8 71 9.6 49.3
21:35 1017 30.03 847 25.01 14.9 58.9 70 9.6 49.3
21:40 1017 30.03 847 25.01 15 59 69 9.3 48.8
21:45 1017 30.03 847 25.01 14.9 58.8 68 9.1 48.3
21:50 1017 30.03 847 25.01 14.9 58.8 68 9 48.2
21:55 1017 30.03 847 25.01 14.9 58.8 68 9 48.2
22:00 1017 30.03 847 25.01 14.8 58.7 67 8.9 48
22:05 1017 30.03 847 25.01 14.8 58.7 68 9 48.1
22:10 1017 30.03 847 25.01 15 59 70 9.6 49.3
22:15 1017 30.03 847 25.01 15.1 59.1 66 8.9 48
22:20 1017 30.03 847 25.01 14.9 58.7 67 8.9 48.1
22:25 1017 30.03 847 25.01 14.7 58.5 67 8.8 47.8
22:30 1017 30.03 847 25.01 14.8 58.6 67 8.7 47.7
22:35 1017 30.03 847 25.01 14.9 58.8 66 8.6 47.5
22:40 1017 30.03 847 25.01 15 59 65 8.6 47.4
22:45 1017 30.03 847 25.01 14.9 58.9 66 8.8 47.8
22:50 1017 30.03 847 25.01 14.8 58.7 68 9.1 48.4
22:55 1017 30.03 847 25.01 14.6 58.2 70 9.2 48.6
23:00 1017 30.03 847 25.01 14.3 57.8 71 9.3 48.7
23:05 1017 30.03 847 25.01 14.1 57.4 71 9 48.3
23:10 1017 30.03 847 25.01 14.1 57.4 72 9.1 48.4
23:15 1017 30.03 847 25.01 14.1 57.4 72 9.1 48.4
23:20 1017 30.03 847 25.01 14 57.3 72 9.1 48.4
23:25 1017 30.03 847 25.01 14 57.1 72 9 48.2
23:30 1017 30.03 847 25.01 14 57.1 72 9.1 48.3
23:35 1017 30.03 847 25.01 13.9 57 73 9.1 48.4
23:40 1017 30.03 847 25.01 13.8 56.9 73 9.1 48.4
23:45 1017 30.03 847 25.01 13.8 56.8 72 8.9 48
23:50 1017 30.03 847 25.01 13.8 56.8 73 9.1 48.4
23:55 1018 30.06 847 25.01 13.8 56.9 73 9.1 48.4
24:00 1018 30.06 847 25.01 14 57.2 72 9 48.2